NCAR-RAP Real-Time Weather Data

Output produced by METARs form (12 May 2021  10:39 UTC)
found at http://weather.rap.ucar.edu/surface/
 
KAMG 121032Z AUTO 00000KT 9SM SCT002 BKN120 19/19 A3003 RMK AO2 T01940189
KAMG 120953Z AUTO 00000KT 9SM FEW100 19/19 A3002 RMK AO2 SLP163 T01940189
KAMG 120853Z AUTO 00000KT 10SM OVC095 19/19 A3001 RMK AO2 SLP160 T01940189 55011
KAMG 120817Z AUTO 00000KT 10SM FEW005 OVC100 19/19 A3002 RMK AO2 T01940194
KAMG 120753Z AUTO 00000KT 10SM OVC100 19/19 A3001 RMK AO2 SLP160 T01940194
KAMG 120653Z AUTO 00000KT 7SM FEW007 OVC110 19/19 A3002 RMK AO2 SLP162 T01940189
KAMG 120627Z AUTO 00000KT 10SM SCT007 BKN110 19/19 A3003 RMK AO2 T01940189
KAMG 120553Z AUTO 00000KT 10SM BKN110 20/19 A3005 RMK AO2 SLP171 60046 T02000189 10250 20200 58002
KAMG 120509Z AUTO 02003KT 10SM FEW005 OVC110 21/20 A3006 RMK AO2 LTG DSNT SE T02060200
KAMG 120453Z AUTO 00000KT 10SM BKN110 21/20 A3007 RMK AO2 RAE01 TSE0354 SLP180 P0000 T02060200 403060178
KAMG 120406Z AUTO 28005KT 10SM FEW006 BKN038 OVC120 21/19 A3008 RMK AO2 LTG DSNT NE AND E RAE01 TSE0354 P0000 T02110194
KAMG 120356Z AUTO 26008G16KT 3SM VCTS -RA BR FEW006 BKN028 OVC036 21/20 A3008 RMK AO2 LTG DSNT NE TSE54 P0000 T02110200
KAMG 120353Z AUTO 25007G20KT 1 3/4SM TSRA BR FEW006 BKN028 OVC038 21/20 A3008 RMK AO2 LTG DSNT NE RAB16 TSB22 SLP184 P0046 T02060200
KAMG 120343Z AUTO 30008KT 280V340 1 1/4SM +TSRA BR FEW007 BKN019 OVC024 21/20 A3008 RMK AO2 LTG DSNT NE RAB16 TSB22 P0032 T02060200
KAMG 120332Z AUTO 31009KT 1 3/4SM +TSRA BR FEW016 BKN020 OVC038 22/20 A3008 RMK AO2 LTG DSNT N AND NE RAB16 TSB22 P0012 T02170200
KAMG 120322Z AUTO 24005KT 10SM -TSRA BKN022 BKN038 OVC046 22/19 A3007 RMK AO2 LTG DSNT N RAB16 TSB22 P0000 T02220194
KAMG 120304Z AUTO 21006KT 10SM VCTS SCT025 BKN037 OVC085 23/19 A3006 RMK AO2 LTG DSNT NW T02280189
KAMG 120253Z AUTO 20007KT 10SM SCT026 BKN035 OVC044 23/19 A3005 RMK AO2 LTG DSNT N SLP173 T02280189 53015
KAMG 120234Z AUTO 19005KT 10SM BKN024 23/19 A3004 RMK AO2 LTG DSNT NW T02280189
KAMG 120153Z AUTO 19005KT 10SM FEW055 SCT080 23/19 A3003 RMK AO2 SLP165 T02280194
KAMG 120053Z AUTO 17008KT 10SM FEW055 23/19 A3002 RMK AO2 SLP163 T02330189
KAMG 112353Z AUTO 18008KT 10SM FEW050 25/19 A3001 RMK AO2 SLP159 T02500189 10306 20250 53000
KAMG 112253Z AUTO 00000KT 10SM CLR 29/18 A2999 RMK AO2 SLP154 T02890178
KAMG 112153Z AUTO VRB03KT 10SM CLR 29/18 A2999 RMK AO2 SLP154 T02890178
KAMG 112053Z AUTO 26004KT 10SM SCT050 BKN060 30/18 A3001 RMK AO2 SLP157 T03000178 56017
KAMG 111953Z AUTO 26004KT 10SM FEW050 SCT065 30/17 A3002 RMK AO2 SLP163 T03000172
KAMG 111853Z AUTO VRB03KT 10SM CLR 29/18 A3003 RMK AO2 SLP165 T02940178